Time;durP1;ratioP1;P1;durP2;ratioP2;P2;SDS_P1;SDS_P2;PMS_P1;PMS_P2;Temp;Humidity;BMP_temperature;BMP_pressure;BME280_temperature;BME280_humidity;BME280_pressure;Samples;Min_cycle;Max_cycle;Signal;HPM_P1;HPM_P2
2022/11/10 00:00:33;;;;;;;16.38;2.78;;;;;;;8.75;100.00;101438.25;10535481;28;20491;-70
2022/11/10 00:05:38;;;;;;;10.32;2.90;;;;;;;8.72;100.00;101452.19;10535863;28;20121;-69
2022/11/10 00:21:20;;;;;;;10.05;2.85;;;;;;;8.49;100.00;101456.16;10534892;28;20071;-68
2022/11/10 00:26:22;;;;;;;10.45;3.42;;;;;;;8.50;100.00;101447.50;10537051;28;20531;-66
2022/11/10 00:31:27;;;;;;;15.10;3.25;;;;;;;8.60;100.00;101447.28;10543143;28;20089;-67
2022/11/10 00:36:30;;;;;;;9.98;2.67;;;;;;;8.59;100.00;101456.84;10542854;28;20048;-67
2022/11/10 00:41:32;;;;;;;8.93;2.83;;;;;;;8.48;100.00;101475.28;10542919;28;20048;-68
2022/11/10 00:46:34;;;;;;;12.50;3.05;;;;;;;8.46;100.00;101482.25;10540395;28;20052;-66
2022/11/10 00:51:37;;;;;;;14.05;3.40;;;;;;;8.38;100.00;101486.78;10542442;28;20101;-67
2022/11/10 00:56:39;;;;;;;17.17;3.45;;;;;;;8.34;100.00;101492.94;10542786;28;20078;-69
2022/11/10 01:01:40;;;;;;;12.50;3.08;;;;;;;8.35;100.00;101479.91;10542172;28;20097;-67
2022/11/10 01:06:43;;;;;;;15.70;3.47;;;;;;;8.29;100.00;101479.19;10541584;28;20058;-68
2022/11/10 01:11:45;;;;;;;17.67;3.15;;;;;;;8.22;100.00;101487.13;10542006;28;20070;-67
2022/11/10 01:16:47;;;;;;;15.82;3.63;;;;;;;8.28;100.00;101487.91;10539505;28;20101;-68
2022/11/10 01:21:51;;;;;;;12.20;2.83;;;;;;;8.27;100.00;101492.22;10540795;28;20044;-67
2022/11/10 01:26:53;;;;;;;11.30;3.15;;;;;;;8.20;100.00;101503.66;10540964;28;20056;-66
2022/11/10 01:31:55;;;;;;;13.40;2.72;;;;;;;8.22;100.00;101518.31;10540334;28;20458;-65
2022/11/10 01:36:58;;;;;;;21.50;3.85;;;;;;;8.22;100.00;101526.13;10540746;28;20044;-67
2022/11/10 01:41:59;;;;;;;18.05;3.08;;;;;;;8.19;100.00;101521.00;10540121;28;20101;-68
2022/11/10 01:47:02;;;;;;;10.63;2.78;;;;;;;8.21;100.00;101524.41;10537573;28;20423;-67
2022/11/10 01:52:09;;;;;;;;;;;;;;;8.31;100.00;101517.28;10540372;28;20131;-67
2022/11/10 01:57:15;;;;;;;12.75;3.33;;;;;;;8.29;100.00;101520.81;10539810;28;19924;-67
2022/11/10 02:02:24;;;;;;;15.63;3.40;;;;;;;8.31;100.00;101519.03;10539441;28;20047;-68
2022/11/10 02:07:28;;;;;;;11.32;3.13;;;;;;;8.19;100.00;101517.53;10539024;28;20093;-69
2022/11/10 02:12:38;;;;;;;12.00;2.75;;;;;;;8.22;100.00;101523.53;10539488;28;20052;-71
2022/11/10 02:17:41;;;;;;;13.10;2.95;;;;;;;8.18;100.00;101524.47;10538341;28;20484;-73
2022/11/10 02:22:45;;;;;;;13.77;3.55;;;;;;;8.19;100.00;101528.81;10538749;28;20108;-69
2022/11/10 02:27:46;;;;;;;10.32;2.60;;;;;;;8.23;100.00;101532.19;10538543;28;20074;-68
2022/11/10 02:32:48;;;;;;;15.13;2.90;;;;;;;8.23;100.00;101547.78;10537985;28;20109;-67
2022/11/10 02:37:51;;;;;;;12.80;3.00;;;;;;;8.19;100.00;101554.81;10538269;28;20048;-67
2022/11/10 02:42:52;;;;;;;11.20;2.90;;;;;;;8.15;100.00;101573.97;10535552;28;20044;-69
2022/11/10 02:47:54;;;;;;;11.52;2.90;;;;;;;8.06;100.00;101582.81;10537523;28;20048;-67
2022/11/10 02:52:57;;;;;;;10.85;2.83;;;;;;;8.04;100.00;101587.16;10537747;28;20056;-66
2022/11/10 02:57:59;;;;;;;16.58;3.28;;;;;;;7.98;100.00;101585.53;10537267;28;20054;-68
2022/11/10 03:03:02;;;;;;;14.68;2.88;;;;;;;7.92;100.00;101575.28;10537343;28;20105;-70
2022/11/10 03:08:06;;;;;;;15.13;3.03;;;;;;;7.95;100.00;101580.44;10536917;28;20109;-67
2022/11/10 03:13:08;;;;;;;9.60;2.78;;;;;;;7.85;100.00;101594.47;10534645;28;20102;-69
2022/11/10 03:18:10;;;;;;;13.07;3.90;;;;;;;7.85;100.00;101595.34;10536504;28;20348;-68
2022/11/10 03:23:13;;;;;;;18.15;3.60;;;;;;;7.76;100.00;101602.44;10536636;28;20393;-68
2022/11/10 03:28:15;;;;;;;13.40;2.65;;;;;;;7.71;100.00;101608.59;10536708;28;20047;-66
2022/11/10 03:33:17;;;;;;;18.15;3.67;;;;;;;7.68;100.00;101619.03;10536593;28;20055;-68
2022/11/10 03:38:20;;;;;;;14.07;3.20;;;;;;;7.69;100.00;101620.75;10536414;28;20087;-68
2022/11/10 03:43:21;;;;;;;10.45;2.95;;;;;;;7.74;100.00;101644.03;10533645;28;20086;-69
2022/11/10 03:48:23;;;;;;;12.38;3.38;;;;;;;7.64;100.00;101635.56;10535455;28;20503;-69
2022/11/10 03:53:26;;;;;;;14.52;3.13;;;;;;;7.66;100.00;101646.75;10535328;28;20385;-68
2022/11/10 03:58:28;;;;;;;12.90;3.35;;;;;;;7.55;100.00;101648.69;10535079;28;20058;-67
2022/11/10 04:03:30;;;;;;;14.43;2.92;;;;;;;7.50;100.00;101650.50;10542362;28;20143;-70
2022/11/10 04:19:13;;;;;;;12.20;2.90;;;;;;;7.40;100.00;101675.78;10522207;28;20014;-68
2022/11/10 04:24:16;;;;;;;19.95;3.20;;;;;;;7.43;100.00;101684.34;10543517;28;20079;-66
2022/11/10 04:29:20;;;;;;;8.55;2.75;;;;;;;7.42;100.00;101690.44;10543703;28;20132;-68
2022/11/10 04:34:21;;;;;;;20.98;3.17;;;;;;;7.32;100.00;101694.06;10543384;28;20537;-68
2022/11/10 04:39:24;;;;;;;15.63;3.47;;;;;;;7.39;100.00;101703.47;10542718;28;20048;-66
2022/11/10 04:44:26;;;;;;;10.50;3.05;;;;;;;7.43;100.00;101707.72;10539959;28;20314;-70
2022/11/10 04:49:28;;;;;;;14.63;3.25;;;;;;;7.39;100.00;101720.81;10542945;28;20109;-67
2022/11/10 04:54:31;;;;;;;18.95;3.00;;;;;;;7.37;100.00;101723.44;10542238;28;20097;-69
2022/11/10 04:59:32;;;;;;;17.00;3.00;;;;;;;7.38;100.00;101730.34;10542332;28;20103;-67
2022/11/10 05:04:34;;;;;;;15.13;3.60;;;;;;;7.28;100.00;101749.50;10542315;28;20048;-67
2022/11/10 05:09:37;;;;;;;14.82;3.10;;;;;;;7.21;100.00;101752.22;10542190;28;20052;-70
2022/11/10 05:14:39;;;;;;;19.65;3.45;;;;;;;7.33;100.00;101748.56;10538128;28;20109;-70
2022/11/10 05:19:40;;;;;;;16.33;2.88;;;;;;;7.35;100.00;101766.72;10541163;28;20044;-67
2022/11/10 05:24:43;;;;;;;16.45;3.30;;;;;;;7.26;100.00;101767.72;10540790;28;20424;-69
2022/11/10 05:29:45;;;;;;;12.75;2.88;;;;;;;7.27;100.00;101771.16;10541277;28;20052;-68
2022/11/10 05:34:47;;;;;;;12.18;3.00;;;;;;;7.20;100.00;101766.06;10540362;28;20044;-69
2022/11/10 05:39:50;;;;;;;13.57;3.55;;;;;;;7.19;100.00;101756.53;10541023;28;20100;-67
2022/11/10 05:44:51;;;;;;;11.57;3.88;;;;;;;7.28;100.00;101749.50;10537515;28;20549;-65
2022/11/10 05:49:53;;;;;;;12.20;2.65;;;;;;;7.21;100.00;101760.00;10540857;28;20101;-68
2022/11/10 05:54:56;;;;;;;16.63;3.40;;;;;;;7.16;100.00;101781.69;10539790;28;20056;-68
2022/11/10 05:59:58;;;;;;;14.35;2.58;;;;;;;7.31;100.00;101780.63;10540003;28;20541;-66
2022/11/10 06:04:59;;;;;;;11.68;3.08;;;;;;;7.12;100.00;101791.25;10539459;28;20048;-68
2022/11/10 06:10:05;;;;;;;13.43;2.97;;;;;;;7.08;100.00;101794.75;10539174;28;20054;-66
2022/11/10 06:15:09;;;;;;;14.68;3.25;;;;;;;7.11;100.00;101806.88;10536906;28;20052;-67
2022/11/10 06:20:14;;;;;;;16.40;2.85;;;;;;;7.03;100.00;101825.13;10538525;28;20051;-66
2022/11/10 06:25:17;;;;;;;11.07;2.92;;;;;;;6.92;100.00;101826.09;10538639;28;20044;-68
2022/11/10 06:30:19;;;;;;;15.30;2.88;;;;;;;6.96;100.00;101824.34;10538515;28;20101;-67
2022/11/10 06:35:22;;;;;;;10.95;2.88;;;;;;;6.93;100.00;101825.22;10538175;28;20063;-68
2022/11/10 06:40:25;;;;;;;13.10;3.40;;;;;;;6.93;100.00;101833.03;10533431;28;20040;-67
2022/11/10 06:45:28;;;;;;;18.00;3.20;;;;;;;6.95;100.00;101857.22;10496540;28;20480;-68
2022/11/10 06:50:31;;;;;;;;;;;;;;;6.98;100.00;101863.25;10535810;28;20420;-70
2022/11/10 06:55:34;;;;;;;14.98;3.22;;;;;;;6.98;100.00;101876.22;10536712;28;19959;-67
2022/11/10 07:00:36;;;;;;;10.80;2.88;;;;;;;7.02;100.00;101870.97;10513875;28;20063;-67
2022/11/10 07:05:38;;;;;;;;;;;;;;;7.08;100.00;101877.81;10494512;28;20098;-69
2022/11/10 07:10:42;;;;;;;9.60;3.08;;;;;;;7.13;100.00;101881.25;10494527;28;19924;-67
2022/11/10 07:15:44;;;;;;;11.60;2.97;;;;;;;7.16;100.00;101894.22;10491970;28;20055;-67
2022/11/10 07:20:46;;;;;;;12.65;3.08;;;;;;;7.21;100.00;101902.78;10493390;28;20161;-66
2022/11/10 07:25:49;;;;;;;11.32;3.50;;;;;;;7.29;100.00;101914.84;10493597;28;20516;-67
2022/11/10 07:30:50;;;;;;;11.45;2.38;;;;;;;7.44;100.00;101917.25;10493045;28;20570;-68
2022/11/10 07:35:58;;;;;;;14.95;3.10;;;;;;;7.46;100.00;101936.25;10493782;28;20052;-66
2022/11/10 07:41:01;;;;;;;18.30;3.60;;;;;;;7.56;100.00;101941.38;10492939;28;20114;-67
2022/11/10 07:46:02;;;;;;;17.17;3.85;;;;;;;7.69;100.00;101936.84;10517545;28;20079;-71
2022/11/10 07:51:04;;;;;;;13.65;3.38;;;;;;;7.76;100.00;101941.09;10536781;28;20048;-68
2022/11/10 07:56:09;;;;;;;12.00;3.70;;;;;;;7.88;100.00;101942.69;10536276;28;20040;-68
2022/11/10 08:01:11;;;;;;;15.32;3.65;;;;;;;7.97;100.00;101947.75;10536236;28;20056;-70
2022/11/10 08:06:12;;;;;;;22.73;3.65;;;;;;;8.16;100.00;101963.09;10535704;28;20040;-69
2022/11/10 08:11:15;;;;;;;13.23;3.17;;;;;;;8.35;100.00;101958.47;10535850;28;20058;-65
2022/11/10 08:16:17;;;;;;;16.00;3.00;;;;;;;8.59;100.00;101977.22;10533242;28;20076;-66
2022/11/10 08:21:19;;;;;;;11.43;3.05;;;;;;;9.22;100.00;101982.25;10535401;28;20471;-67
2022/11/10 08:26:22;;;;;;;15.35;3.65;;;;;;;9.99;100.00;101978.97;10536150;28;20141;-70
2022/11/10 08:31:24;;;;;;;18.02;3.25;;;;;;;10.25;100.00;101990.59;10536134;28;20056;-68
2022/11/10 08:36:26;;;;;;;13.23;3.25;;;;;;;10.85;100.00;102004.91;10520320;28;20094;-68
2022/11/10 08:41:29;;;;;;;13.13;3.22;;;;;;;10.62;100.00;101996.75;10531570;28;20056;-67
2022/11/10 08:46:30;;;;;;;13.93;2.72;;;;;;;10.87;100.00;101995.25;10533197;28;20111;-72
2022/11/10 08:51:32;;;;;;;11.32;3.08;;;;;;;10.82;100.00;101998.84;10542394;28;20059;-75
2022/11/10 08:56:35;;;;;;;17.80;3.60;;;;;;;11.43;100.00;102012.13;10542325;28;20496;-71
2022/11/10 09:01:42;;;;;;;11.48;2.97;;;;;;;11.07;100.00;102016.53;10543488;28;20074;-79
2022/11/10 09:06:43;;;;;;;16.08;3.42;;;;;;;11.44;100.00;102021.66;10544089;28;20052;-77
2022/11/10 09:11:46;;;;;;;14.77;3.70;;;;;;;12.17;100.00;102029.22;10542713;28;20128;-71
2022/11/10 09:16:48;;;;;;;12.52;3.17;;;;;;;13.14;100.00;102035.72;10540767;28;20040;-75
2022/11/10 09:21:50;;;;;;;9.20;3.28;;;;;;;12.07;100.00;102044.34;10543553;28;20545;-73
2022/11/10 09:26:53;;;;;;;10.55;3.33;;;;;;;12.62;99.66;102047.03;10542701;28;20105;-74
2022/11/10 09:31:54;;;;;;;14.95;3.80;;;;;;;12.64;100.00;102044.38;10541788;28;20102;-70
2022/11/10 09:36:56;;;;;;;15.55;3.70;;;;;;;13.51;96.53;102038.00;10542721;28;20732;-69
2022/11/10 09:41:59;;;;;;;;;;;;;;;12.74;98.37;102045.75;10512315;28;20105;-66
2022/11/10 09:47:09;;;;;;;17.55;3.60;;;;;;;12.87;97.97;102042.78;10524717;28;19973;-67
2022/11/10 09:52:13;;;;;;;15.77;3.45;;;;;;;12.95;99.10;102058.22;10540402;28;20106;-66
2022/11/10 09:57:24;;;;;;;14.70;3.20;;;;;;;13.12;96.62;102055.03;10540338;28;20059;-67
2022/11/10 10:02:33;;;;;;;14.48;4.00;;;;;;;13.37;96.46;102047.19;10540652;28;20048;-69
2022/11/10 10:07:48;;;;;;;10.73;3.38;;;;;;;13.24;95.86;102045.91;10540805;28;20101;-65
2022/11/10 10:13:19;;;;;;;12.50;3.50;;;;;;;14.35;95.85;102053.28;10539374;28;20458;-65
2022/11/10 10:18:33;;;;;;;9.93;3.17;;;;;;;14.29;90.34;102058.75;10538623;28;20460;-67
2022/11/10 10:23:41;;;;;;;10.45;3.00;;;;;;;14.33;89.08;102064.75;10538211;28;20505;-65
2022/11/10 10:28:47;;;;;;;9.88;2.78;;;;;;;14.29;91.42;102069.25;10537625;28;20059;-68
2022/11/10 10:33:49;;;;;;;14.23;3.38;;;;;;;14.84;88.69;102086.41;10536852;28;20075;-67
2022/11/10 10:38:57;;;;;;;18.48;4.15;;;;;;;14.33;88.41;102089.22;10537643;28;20468;-65
2022/11/10 10:44:09;;;;;;;10.82;2.80;;;;;;;14.78;87.47;102110.31;10532658;28;20101;-67
2022/11/10 10:49:19;;;;;;;10.90;2.92;;;;;;;14.88;87.88;102124.78;10537227;28;20052;-64
2022/11/10 10:54:29;;;;;;;10.57;2.83;;;;;;;16.12;85.45;102125.75;10536907;28;20052;-65
2022/11/10 10:59:34;;;;;;;8.80;2.63;;;;;;;15.33;81.80;102119.47;10536668;28;20904;-66
2022/11/10 11:04:37;;;;;;;8.85;2.38;;;;;;;15.92;84.39;102114.31;10536812;28;20052;-67
2022/11/10 11:09:43;;;;;;;8.02;2.55;;;;;;;15.91;81.88;102115.19;10534200;28;20116;-64
2022/11/10 11:14:46;;;;;;;13.98;3.15;;;;;;;15.57;80.90;102117.56;10533314;28;20609;-73
2022/11/10 11:19:50;;;;;;;10.20;2.78;;;;;;;14.82;84.37;102125.03;10536508;28;20056;-71
2022/11/10 11:25:10;;;;;;;13.73;3.08;;;;;;;15.00;82.40;102122.56;10537093;28;20036;-76
2022/11/10 11:30:17;;;;;;;7.95;2.50;;;;;;;15.30;82.40;102114.34;10536690;28;20118;-73
2022/11/10 11:35:31;;;;;;;8.23;2.38;;;;;;;15.11;79.55;102120.38;10536208;28;20055;-72
2022/11/10 11:40:49;;;;;;;8.75;2.50;;;;;;;16.21;78.54;102142.88;10537092;28;20048;-78
2022/11/10 11:46:03;;;;;;;11.80;2.58;;;;;;;15.56;76.43;102144.78;10495867;28;20102;-76
2022/11/10 11:51:18;;;;;;;8.77;2.30;;;;;;;14.76;79.38;102162.03;10495836;28;20099;-73
2022/11/10 11:56:26;;;;;;;9.40;2.28;;;;;;;14.48;82.43;102147.34;10496068;28;20052;-74
2022/11/10 12:01:57;;;;;;;10.45;2.35;;;;;;;14.70;82.06;102163.13;10495864;28;20122;-75
2022/11/10 12:07:17;;;;;;;9.35;2.20;;;;;;;15.17;80.64;102161.31;10495965;28;20049;-71
2022/11/10 12:12:56;;;;;;;9.05;2.70;;;;;;;14.91;80.96;102182.47;10495541;28;20518;-72
2022/11/10 12:18:17;;;;;;;10.38;2.30;;;;;;;14.84;80.13;102181.00;10521922;28;20106;-72
2022/11/10 12:23:29;;;;;;;9.70;2.93;;;;;;;14.93;81.19;102185.94;10511070;28;20094;-67
2022/11/10 12:28:39;;;;;;;7.25;2.20;;;;;;;14.56;82.36;102187.31;10503396;28;20545;-66
2022/11/10 12:33:49;;;;;;;9.35;2.15;;;;;;;14.57;82.33;102188.16;10502867;28;20094;-65
2022/11/10 12:39:01;;;;;;;8.88;2.17;;;;;;;14.66;80.46;102193.94;10502737;28;20102;-66
2022/11/10 12:44:18;;;;;;;7.38;1.92;;;;;;;14.65;80.85;102192.19;10498098;28;20040;-66
2022/11/10 12:49:30;;;;;;;7.93;2.20;;;;;;;14.61;80.06;102185.34;10501698;28;20400;-66
2022/11/10 12:54:35;;;;;;;5.35;2.10;;;;;;;14.88;78.18;102182.59;10502446;28;20045;-66
2022/11/10 12:59:41;;;;;;;8.45;2.35;;;;;;;15.20;76.12;102182.25;10522701;28;20048;-66
2022/11/10 13:04:44;;;;;;;6.95;2.13;;;;;;;14.95;78.12;102183.19;10541855;28;20048;-66
2022/11/10 13:09:46;;;;;;;6.63;2.05;;;;;;;15.59;76.11;102180.63;10540940;28;20067;-67
2022/11/10 13:14:49;;;;;;;6.30;2.03;;;;;;;14.74;77.61;102195.38;10539197;28;20105;-68
2022/11/10 13:19:54;;;;;;;7.20;2.13;;;;;;;14.51;79.51;102187.47;10542671;28;20438;-64
2022/11/10 13:25:42;;;;;;;10.43;2.25;;;;;;;14.22;79.57;102188.53;10542310;28;20060;-67
2022/11/10 13:30:47;;;;;;;9.80;2.10;;;;;;;14.37;80.37;102193.22;10540417;28;20454;-66
2022/11/10 13:35:56;;;;;;;7.18;1.92;;;;;;;14.41;79.21;102200.09;10539085;28;20059;-65
2022/11/10 13:41:19;;;;;;;10.43;2.47;;;;;;;14.46;78.96;102202.56;10540703;28;20115;-67
2022/11/10 13:46:35;;;;;;;5.85;1.90;;;;;;;14.52;78.04;102214.59;10533348;28;20051;-65
2022/11/10 13:51:45;;;;;;;9.55;2.13;;;;;;;14.50;78.98;102208.53;10539724;28;20480;-68
2022/11/10 13:57:12;;;;;;;7.97;1.90;;;;;;;14.25;78.59;102180.56;10539626;28;20044;-66
2022/11/10 14:02:50;;;;;;;7.35;1.80;;;;;;;14.19;76.87;102175.56;10538980;28;20040;-70
2022/11/10 14:08:05;;;;;;;7.00;1.73;;;;;;;14.10;77.13;102182.00;10541130;28;20048;-68
2022/11/10 14:13:16;;;;;;;5.00;1.60;;;;;;;14.18;77.67;102181.69;10538682;28;20058;-71
2022/11/10 14:18:24;;;;;;;7.18;2.08;;;;;;;14.10;78.04;102185.44;10540837;28;20097;-69
2022/11/10 14:23:36;;;;;;;6.15;2.08;;;;;;;14.07;77.21;102192.59;10539904;28;20491;-68
2022/11/10 14:28:38;;;;;;;3.70;1.88;;;;;;;14.04;78.19;102204.06;10540477;28;20561;-69
2022/11/10 14:33:40;;;;;;;6.10;2.33;;;;;;;14.00;79.06;102199.84;10539968;28;20062;-67
2022/11/10 14:38:45;;;;;;;2.80;1.50;;;;;;;13.87;78.36;102183.66;10530861;28;20048;-67
2022/11/10 14:44:04;;;;;;;7.03;1.60;;;;;;;13.72;78.60;102180.66;10494669;28;20103;-68
2022/11/10 14:49:10;;;;;;;4.40;1.73;;;;;;;13.62;78.39;102193.22;10496990;28;20057;-69
2022/11/10 14:54:23;;;;;;;5.78;1.70;;;;;;;13.63;79.36;102208.06;10497604;28;20656;-66
2022/11/10 14:59:26;;;;;;;7.03;2.10;;;;;;;13.54;79.80;102212.75;10497645;28;20044;-67
2022/11/10 15:04:32;;;;;;;6.68;1.75;;;;;;;13.46;80.58;102220.84;10496071;28;20118;-66
2022/11/10 15:09:36;;;;;;;6.68;1.83;;;;;;;13.31;81.44;102227.44;10495126;28;20065;-65
2022/11/10 15:14:44;;;;;;;6.00;2.13;;;;;;;13.18;81.89;102224.34;10493021;28;20045;-67
2022/11/10 15:19:55;;;;;;;5.70;2.00;;;;;;;13.00;83.54;102208.28;10494983;28;20044;-64
2022/11/10 15:25:01;;;;;;;2.83;1.55;;;;;;;12.84;84.66;102221.00;10495201;28;20055;-65
2022/11/10 15:30:22;;;;;;;3.55;2.13;;;;;;;12.74;85.59;102220.41;10494390;28;20093;-66
2022/11/10 15:35:30;;;;;;;9.15;3.38;;;;;;;12.60;86.47;102234.75;10494629;28;20135;-65
2022/11/10 15:40:44;;;;;;;8.82;2.65;;;;;;;12.44;87.54;102241.34;10494693;28;20052;-66
2022/11/10 15:45:50;;;;;;;5.47;2.00;;;;;;;12.29;87.98;102268.81;10491712;28;20045;-68
2022/11/10 15:50:56;;;;;;;4.78;1.95;;;;;;;12.26;88.03;102253.19;10494117;28;20140;-66
2022/11/10 15:55:59;;;;;;;4.43;1.67;;;;;;;12.27;87.63;102250.53;10495796;28;20090;-67
2022/11/10 16:01:02;;;;;;;6.95;1.80;;;;;;;12.03;88.32;102237.16;10502836;28;20629;-67
2022/11/10 16:06:04;;;;;;;12.65;2.53;;;;;;;11.98;89.37;102241.66;10502141;28;20381;-69
2022/11/10 16:11:15;;;;;;;7.25;2.10;;;;;;;11.96;89.61;102254.78;10502087;28;20055;-68
2022/11/10 16:16:19;;;;;;;3.77;2.10;;;;;;;12.02;89.20;102260.75;10499391;28;20079;-68
2022/11/10 16:21:23;;;;;;;7.75;2.20;;;;;;;12.01;89.88;102252.03;10501896;28;20456;-69
2022/11/10 16:26:27;;;;;;;6.80;1.90;;;;;;;11.93;90.64;102252.25;10501630;28;20118;-67
2022/11/10 16:31:30;;;;;;;4.93;1.95;;;;;;;11.88;90.75;102261.09;10501295;28;20087;-66
2022/11/10 16:36:34;;;;;;;6.72;2.50;;;;;;;11.79;91.13;102255.22;10500870;28;20103;-67
2022/11/10 16:41:37;;;;;;;3.90;1.83;;;;;;;11.79;91.49;102277.88;10500603;28;20665;-67
2022/11/10 16:46:41;;;;;;;7.35;2.00;;;;;;;11.71;92.40;102291.16;10498417;28;20090;-68
2022/11/10 16:51:44;;;;;;;7.43;2.63;;;;;;;11.60;94.01;102291.38;10500561;28;20114;-68
2022/11/10 16:56:47;;;;;;;5.05;1.95;;;;;;;11.54;94.34;102304.63;10500814;28;20109;-69
2022/11/10 17:01:50;;;;;;;10.18;2.60;;;;;;;11.60;93.30;102307.06;10500040;28;20059;-67
2022/11/10 17:06:52;;;;;;;5.13;2.13;;;;;;;11.46;95.15;102313.50;10499451;28;20056;-67
2022/11/10 17:11:55;;;;;;;;;;;;;;;11.31;97.23;102312.09;10499825;28;20113;-68
2022/11/10 17:16:56;;;;;;;7.57;2.53;;;;;;;11.37;95.11;102315.44;10497387;28;19920;-68
2022/11/10 17:21:58;;;;;;;6.80;2.50;;;;;;;11.23;97.83;102321.84;10499857;28;20106;-70
2022/11/10 17:27:01;;;;;;;8.88;2.67;;;;;;;11.07;98.60;102326.53;10498925;28;20496;-67
2022/11/10 17:32:03;;;;;;;10.05;2.63;;;;;;;11.08;98.68;102342.19;10498953;28;20068;-69
2022/11/10 17:37:05;;;;;;;9.57;2.38;;;;;;;11.02;99.39;102341.44;10499315;28;20090;-70
2022/11/10 17:42:12;;;;;;;9.30;2.47;;;;;;;10.97;100.00;102348.50;10498178;28;20428;-68
2022/11/10 17:47:14;;;;;;;9.65;2.90;;;;;;;10.90;99.62;102345.16;10496431;28;20048;-66
2022/11/10 17:52:18;;;;;;;10.30;2.75;;;;;;;10.92;100.00;102335.56;10498384;28;20271;-68
2022/11/10 17:57:21;;;;;;;7.53;3.00;;;;;;;10.84;100.00;102340.06;10497945;28;20059;-67
2022/11/10 18:02:23;;;;;;;6.57;3.10;;;;;;;10.79;100.00;102348.84;10511091;28;20051;-68
2022/11/10 18:07:24;;;;;;;9.77;3.00;;;;;;;10.71;100.00;102363.78;10529754;28;20044;-68
2022/11/10 18:12:27;;;;;;;8.68;3.35;;;;;;;10.68;100.00;102363.84;10498131;28;20086;-68
2022/11/10 18:17:29;;;;;;;10.00;3.03;;;;;;;10.60;100.00;102370.97;10527350;28;20048;-68
2022/11/10 18:22:31;;;;;;;8.63;4.15;;;;;;;10.59;100.00;102374.44;10538018;28;20105;-75
2022/11/10 18:27:35;;;;;;;14.00;4.32;;;;;;;10.49;100.00;102374.63;10537507;28;20120;-74
2022/11/10 18:32:37;;;;;;;8.45;3.53;;;;;;;10.43;100.00;102386.00;10537379;28;20048;-73
2022/11/10 18:37:38;;;;;;;13.65;4.18;;;;;;;10.28;100.00;102389.75;10537610;28;20052;-74
2022/11/10 18:42:42;;;;;;;12.35;4.60;;;;;;;10.19;100.00;102395.09;10537276;28;20101;-72
2022/11/10 18:47:43;;;;;;;11.70;4.90;;;;;;;10.13;100.00;102397.81;10534843;28;20044;-74
2022/11/10 18:52:45;;;;;;;10.10;5.50;;;;;;;9.98;100.00;102404.09;10536558;28;20537;-74
2022/11/10 18:57:48;;;;;;;14.57;6.60;;;;;;;9.88;100.00;102395.53;10523568;28;20059;-74
2022/11/10 19:02:51;;;;;;;13.02;6.10;;;;;;;9.72;100.00;102390.56;10494437;28;20044;-72
2022/11/10 19:07:53;;;;;;;16.85;6.40;;;;;;;9.69;100.00;102388.00;10498012;28;20094;-75
2022/11/10 19:12:56;;;;;;;10.82;5.82;;;;;;;9.70;100.00;102389.72;10494200;28;20052;-75
2022/11/10 19:17:57;;;;;;;11.07;5.43;;;;;;;9.66;100.00;102382.84;10491940;28;20104;-68
2022/11/10 19:22:59;;;;;;;11.93;5.57;;;;;;;9.53;100.00;102388.22;10494582;28;20060;-73
2022/11/10 19:28:03;;;;;;;10.32;5.65;;;;;;;9.46;100.00;102370.94;10494728;28;20508;-71
2022/11/10 19:33:06;;;;;;;14.57;6.30;;;;;;;9.41;100.00;102385.75;10494274;28;20045;-68
2022/11/10 19:38:08;;;;;;;14.20;5.72;;;;;;;9.27;100.00;102391.13;10516811;28;20420;-68
2022/11/10 19:43:11;;;;;;;15.48;5.75;;;;;;;9.26;100.00;102400.72;10533947;28;20111;-68
2022/11/10 19:48:12;;;;;;;11.82;6.05;;;;;;;9.26;100.00;102410.25;10536985;28;20132;-69
2022/11/10 19:53:16;;;;;;;12.00;5.00;;;;;;;9.27;100.00;102415.44;10535912;28;20123;-69
2022/11/10 19:58:19;;;;;;;10.75;5.40;;;;;;;9.15;100.00;102423.41;10534565;28;20085;-67
2022/11/10 20:03:21;;;;;;;9.73;5.85;;;;;;;9.21;100.00;102431.13;10533661;28;20052;-68
2022/11/10 20:08:23;;;;;;;11.52;6.10;;;;;;;9.11;100.00;102447.75;10532010;28;20044;-67
2022/11/10 20:13:26;;;;;;;12.18;5.93;;;;;;;8.95;100.00;102450.53;10531845;28;20070;-69
2022/11/10 20:18:27;;;;;;;12.07;6.57;;;;;;;8.96;100.00;102446.19;10535532;28;20044;-68
2022/11/10 20:23:30;;;;;;;12.88;6.85;;;;;;;8.91;100.00;102454.03;10534902;28;20401;-66
2022/11/10 20:28:36;;;;;;;11.25;7.00;;;;;;;8.91;100.00;102454.03;10534268;28;20060;-67
2022/11/10 20:33:39;;;;;;;11.18;6.45;;;;;;;8.83;100.00;102453.25;10534491;28;20135;-67
2022/11/10 20:38:42;;;;;;;15.65;7.13;;;;;;;8.73;100.00;102453.31;10535527;28;20142;-67
2022/11/10 20:43:45;;;;;;;12.48;5.60;;;;;;;8.84;100.00;102462.78;10537047;28;20044;-69
2022/11/10 20:48:48;;;;;;;14.50;6.65;;;;;;;8.75;100.00;102467.19;10542921;28;20717;-70
2022/11/10 20:53:50;;;;;;;15.45;6.43;;;;;;;8.69;100.00;102472.44;10542937;28;20116;-72
2022/11/10 20:58:53;;;;;;;18.98;6.90;;;;;;;8.52;100.00;102467.31;10542872;28;20048;-72
2022/11/10 21:03:56;;;;;;;13.82;6.10;;;;;;;8.60;100.00;102459.50;10542729;28;20480;-73
2022/11/10 21:08:57;;;;;;;12.90;6.28;;;;;;;8.56;100.00;102444.78;10542524;28;20101;-74
2022/11/10 21:14:02;;;;;;;16.48;6.70;;;;;;;8.58;100.00;102441.31;10540442;28;20052;-71
2022/11/10 21:19:03;;;;;;;16.00;7.25;;;;;;;8.53;100.00;102452.59;10543086;28;20056;-72
2022/11/10 21:24:08;;;;;;;17.75;6.78;;;;;;;8.56;100.00;102447.41;10541771;28;20549;-73
2022/11/10 21:29:11;;;;;;;16.48;6.88;;;;;;;8.47;100.00;102456.09;10540725;28;20474;-73
2022/11/10 21:34:13;;;;;;;16.55;6.47;;;;;;;8.44;100.00;102462.19;10541324;28;20051;-73
2022/11/10 21:39:15;;;;;;;18.27;7.20;;;;;;;8.44;100.00;102457.00;10540830;28;20454;-73
2022/11/10 21:44:18;;;;;;;14.85;7.03;;;;;;;8.42;100.00;102468.28;10538916;28;20044;-74
2022/11/10 21:49:20;;;;;;;17.23;7.53;;;;;;;8.26;100.00;102468.41;10540798;28;20048;-73
2022/11/10 21:54:21;;;;;;;18.00;7.05;;;;;;;8.30;100.00;102485.72;10539312;28;20051;-74
2022/11/10 21:59:24;;;;;;;16.30;6.75;;;;;;;8.27;100.00;102485.72;10541082;28;20093;-74
2022/11/10 22:04:26;;;;;;;23.50;7.55;;;;;;;8.25;100.00;102482.28;10539881;28;20052;-74
2022/11/10 22:20:09;;;;;;;26.27;7.57;;;;;;;8.05;100.00;102511.88;10539170;28;20476;-73
2022/11/10 22:25:11;;;;;;;20.48;7.68;;;;;;;8.07;100.00;102511.81;10538596;28;20086;-73
2022/11/10 22:30:14;;;;;;;18.17;7.03;;;;;;;8.10;100.00;102510.09;10537886;28;20101;-70
2022/11/10 22:45:54;;;;;;;18.83;7.28;;;;;;;8.05;100.00;102532.66;10535651;28;20040;-71
2022/11/10 22:50:57;;;;;;;16.15;6.93;;;;;;;7.95;100.00;102539.66;10537840;28;20044;-72
2022/11/10 22:56:00;;;;;;;18.98;7.18;;;;;;;7.97;100.00;102563.88;10537472;28;20047;-72
2022/11/10 23:01:08;;;;;;;17.42;6.78;;;;;;;7.89;100.00;102557.84;10537743;28;20048;-74
2022/11/10 23:06:11;;;;;;;16.17;6.63;;;;;;;8.02;100.00;102552.59;10536593;28;20052;-71
2022/11/10 23:11:17;;;;;;;13.48;6.68;;;;;;;8.01;100.00;102561.28;10537748;28;20052;-72
2022/11/10 23:16:23;;;;;;;13.95;6.50;;;;;;;8.05;100.00;102557.78;10534608;28;20043;-72
2022/11/10 23:21:30;;;;;;;9.85;6.50;;;;;;;8.01;100.00;102561.28;10536672;28;20074;-73
2022/11/10 23:26:32;;;;;;;11.88;6.13;;;;;;;7.96;100.00;102575.16;10536834;28;20105;-73
2022/11/10 23:31:37;;;;;;;13.02;6.38;;;;;;;7.99;100.00;102564.75;10536116;28;20090;-73
2022/11/10 23:36:38;;;;;;;12.13;6.22;;;;;;;7.90;100.00;102562.16;10536117;28;20066;-72
2022/11/10 23:41:40;;;;;;;12.03;6.00;;;;;;;7.84;100.00;102570.84;10536346;28;20055;-69
2022/11/10 23:46:43;;;;;;;10.63;6.63;;;;;;;7.81;100.00;102580.41;10533977;28;20381;-73
2022/11/10 23:51:46;;;;;;;10.15;6.07;;;;;;;7.89;100.00;102585.56;10536575;28;20052;-72